Pleasant Hill, Oregon
Current Conditions -  °F | °C
As of 7:54 AM on Thursday 27 Nov 2014 (Local Time) from KEUG Reporting Station
Overcast Overcast  
Wind Chill: 52°   Ceiling: 6000
Heat Index: 52°   Visibility: 8mi
Dew Point: 49°   Wind: 3mph
Humidity: 89%   Direction: 170°S
Pressure: 30.02"   Gusts: NA
Location:  43.97°N, 122.93°W
Report Text: KEUG 271554Z 17003KT 8SM OVC060 11/09 A3002 RMK AO2 RAB04E13B31E53 SLP165 VCSH P0000 T01110094
Loading
Personal Weather Stations






























Interactive Weather Map New forecast layout! Learn more

10-Day Weather Forecast

Advertisements
Track Severe Weather on mobile